sensor_id;sensor_type;location;lat;lon;timestamp;pressure;altitude;pressure_sealevel;temperature
48003;BMP280;33768;48.578;11.574;2023-07-22T00:01:49;96449.63;;;15.44
48003;BMP280;33768;48.578;11.574;2023-07-22T00:04:53;96441.38;;;15.44
48003;BMP280;33768;48.578;11.574;2023-07-22T00:07:57;96452.03;;;15.40
48003;BMP280;33768;48.578;11.574;2023-07-22T00:11:02;96453.34;;;15.32
48003;BMP280;33768;48.578;11.574;2023-07-22T00:14:08;96453.16;;;15.30
48003;BMP280;33768;48.578;11.574;2023-07-22T00:17:13;96453.16;;;15.30
48003;BMP280;33768;48.578;11.574;2023-07-22T00:20:18;96458.66;;;15.30
48003;BMP280;33768;48.578;11.574;2023-07-22T00:23:23;96463.59;;;15.32
48003;BMP280;33768;48.578;11.574;2023-07-22T00:26:28;96453.38;;;15.25
48003;BMP280;33768;48.578;11.574;2023-07-22T00:29:32;96448.25;;;15.14
48003;BMP280;33768;48.578;11.574;2023-07-22T00:32:37;96449.38;;;15.11
48003;BMP280;33768;48.578;11.574;2023-07-22T00:35:42;96446.78;;;15.05
48003;BMP280;33768;48.578;11.574;2023-07-22T00:38:46;96447.19;;;15.02
48003;BMP280;33768;48.578;11.574;2023-07-22T00:41:51;96440.59;;;14.98
48003;BMP280;33768;48.578;11.574;2023-07-22T00:44:55;96440.78;;;14.92
48003;BMP280;33768;48.578;11.574;2023-07-22T00:47:59;96445.72;;;14.86
48003;BMP280;33768;48.578;11.574;2023-07-22T00:51:04;96442.44;;;14.80
48003;BMP280;33768;48.578;11.574;2023-07-22T00:54:08;96435.13;;;14.75
48003;BMP280;33768;48.578;11.574;2023-07-22T00:57:12;96436.97;;;14.73
48003;BMP280;33768;48.578;11.574;2023-07-22T01:00:16;96431.84;;;14.70
48003;BMP280;33768;48.578;11.574;2023-07-22T01:03:20;96429.66;;;14.68
48003;BMP280;33768;48.578;11.574;2023-07-22T01:06:25;96428.53;;;14.64
48003;BMP280;33768;48.578;11.574;2023-07-22T01:09:40;96419.03;;;14.57
48003;BMP280;33768;48.578;11.574;2023-07-22T01:12:45;96419.97;;;14.52
48003;BMP280;33768;48.578;11.574;2023-07-22T01:15:49;96418.66;;;14.53
48003;BMP280;33768;48.578;11.574;2023-07-22T01:18:54;96419.59;;;14.56
48003;BMP280;33768;48.578;11.574;2023-07-22T01:22:04;96415.19;;;14.53
48003;BMP280;33768;48.578;11.574;2023-07-22T01:25:11;96412.44;;;14.53
48003;BMP280;33768;48.578;11.574;2023-07-22T01:28:16;96414.84;;;14.49
48003;BMP280;33768;48.578;11.574;2023-07-22T01:31:20;96419.97;;;14.45
48003;BMP280;33768;48.578;11.574;2023-07-22T01:34:24;96421.06;;;14.42
48003;BMP280;33768;48.578;11.574;2023-07-22T01:37:28;96424.53;;;14.35
48003;BMP280;33768;48.578;11.574;2023-07-22T01:40:33;96418.69;;;14.31
48003;BMP280;33768;48.578;11.574;2023-07-22T01:43:37;96423.09;;;14.34
48003;BMP280;33768;48.578;11.574;2023-07-22T01:46:41;96425.66;;;14.32
48003;BMP280;33768;48.578;11.574;2023-07-22T01:49:45;96430.03;;;14.35
48003;BMP280;33768;48.578;11.574;2023-07-22T01:52:50;96428.59;;;14.34
48003;BMP280;33768;48.578;11.574;2023-07-22T01:55:54;96424.00;;;14.29
48003;BMP280;33768;48.578;11.574;2023-07-22T01:58:58;96426.19;;;14.23
48003;BMP280;33768;48.578;11.574;2023-07-22T02:02:02;96424.91;;;14.17
48003;BMP280;33768;48.578;11.574;2023-07-22T02:05:07;96423.81;;;14.12
48003;BMP280;33768;48.578;11.574;2023-07-22T02:08:11;96423.44;;;14.08
48003;BMP280;33768;48.578;11.574;2023-07-22T02:11:16;96417.22;;;14.08
48003;BMP280;33768;48.578;11.574;2023-07-22T02:14:20;96427.47;;;14.07
48003;BMP280;33768;48.578;11.574;2023-07-22T02:17:24;96422.34;;;14.04
48003;BMP280;33768;48.578;11.574;2023-07-22T02:20:28;96430.00;;;14.06
48003;BMP280;33768;48.578;11.574;2023-07-22T02:23:33;96431.44;;;13.92
48003;BMP280;33768;48.578;11.574;2023-07-22T02:26:37;96429.22;;;13.83
48003;BMP280;33768;48.578;11.574;2023-07-22T02:29:41;96437.44;;;13.75
48003;BMP280;33768;48.578;11.574;2023-07-22T02:32:45;96441.44;;;13.67
48003;BMP280;33768;48.578;11.574;2023-07-22T02:35:49;96444.72;;;13.66
48003;BMP280;33768;48.578;11.574;2023-07-22T02:38:54;96450.97;;;13.66
48003;BMP280;33768;48.578;11.574;2023-07-22T02:41:58;96451.88;;;13.69
48003;BMP280;33768;48.578;11.574;2023-07-22T02:45:03;96463.91;;;13.66
48003;BMP280;33768;48.578;11.574;2023-07-22T02:48:08;96461.34;;;13.60
48003;BMP280;33768;48.578;11.574;2023-07-22T02:51:13;96462.44;;;13.57
48003;BMP280;33768;48.578;11.574;2023-07-22T02:54:17;96456.59;;;13.53
48003;BMP280;33768;48.578;11.574;2023-07-22T02:57:21;96455.25;;;13.40
48003;BMP280;33768;48.578;11.574;2023-07-22T03:00:26;96456.09;;;13.27
48003;BMP280;33768;48.578;11.574;2023-07-22T03:03:30;96449.84;;;13.19
48003;BMP280;33768;48.578;11.574;2023-07-22T03:06:36;96462.59;;;13.10
48003;BMP280;33768;48.578;11.574;2023-07-22T03:09:41;96459.72;;;12.87
48003;BMP280;33768;48.578;11.574;2023-07-22T03:12:46;96475.38;;;12.80
48003;BMP280;33768;48.578;11.574;2023-07-22T03:15:51;96467.09;;;12.72
48003;BMP280;33768;48.578;11.574;2023-07-22T03:18:55;96474.56;;;12.72
48003;BMP280;33768;48.578;11.574;2023-07-22T03:21:59;96466.22;;;12.77
48003;BMP280;33768;48.578;11.574;2023-07-22T03:25:03;96479.94;;;12.77
48003;BMP280;33768;48.578;11.574;2023-07-22T03:28:09;96478.22;;;12.74
48003;BMP280;33768;48.578;11.574;2023-07-22T03:31:13;96489.34;;;12.69
48003;BMP280;33768;48.578;11.574;2023-07-22T03:34:18;96480.28;;;12.53
48003;BMP280;33768;48.578;11.574;2023-07-22T03:37:22;96473.47;;;12.47
48003;BMP280;33768;48.578;11.574;2023-07-22T03:40:26;96480.22;;;12.46
48003;BMP280;33768;48.578;11.574;2023-07-22T03:43:34;96489.22;;;12.54
48003;BMP280;33768;48.578;11.574;2023-07-22T03:46:38;96479.19;;;12.56
48003;BMP280;33768;48.578;11.574;2023-07-22T03:49:43;96482.19;;;12.66
48003;BMP280;33768;48.578;11.574;2023-07-22T03:52:47;96493.81;;;12.79
48003;BMP280;33768;48.578;11.574;2023-07-22T03:55:51;96488.78;;;12.90
48003;BMP280;33768;48.578;11.574;2023-07-22T03:58:55;96499.44;;;13.01
48003;BMP280;33768;48.578;11.574;2023-07-22T04:01:59;96491.44;;;13.03
48003;BMP280;33768;48.578;11.574;2023-07-22T04:05:04;96499.97;;;13.00
48003;BMP280;33768;48.578;11.574;2023-07-22T04:08:08;96487.50;;;12.91
48003;BMP280;33768;48.578;11.574;2023-07-22T04:11:12;96486.72;;;12.83
48003;BMP280;33768;48.578;11.574;2023-07-22T04:14:18;96485.41;;;12.77
48003;BMP280;33768;48.578;11.574;2023-07-22T04:17:22;96483.22;;;12.76
48003;BMP280;33768;48.578;11.574;2023-07-22T04:20:26;96474.66;;;12.79
48003;BMP280;33768;48.578;11.574;2023-07-22T04:23:31;96481.47;;;12.85
48003;BMP280;33768;48.578;11.574;2023-07-22T04:26:37;96477.53;;;13.01
48003;BMP280;33768;48.578;11.574;2023-07-22T04:29:41;96482.91;;;13.14
48003;BMP280;33768;48.578;11.574;2023-07-22T04:32:49;96472.53;;;13.27
48003;BMP280;33768;48.578;11.574;2023-07-22T04:35:55;96479.38;;;13.41
48003;BMP280;33768;48.578;11.574;2023-07-22T04:39:00;96493.16;;;13.56
48003;BMP280;33768;48.578;11.574;2023-07-22T04:42:04;96506.34;;;13.65
48003;BMP280;33768;48.578;11.574;2023-07-22T04:45:10;96506.38;;;13.72
48003;BMP280;33768;48.578;11.574;2023-07-22T04:48:16;96510.25;;;13.84
48003;BMP280;33768;48.578;11.574;2023-07-22T04:51:20;96510.44;;;13.93
48003;BMP280;33768;48.578;11.574;2023-07-22T04:54:24;96497.34;;;14.07
48003;BMP280;33768;48.578;11.574;2023-07-22T04:57:31;96506.34;;;14.14
48003;BMP280;33768;48.578;11.574;2023-07-22T05:00:39;96509.28;;;14.24
48003;BMP280;33768;48.578;11.574;2023-07-22T05:03:43;96506.53;;;14.31
48003;BMP280;33768;48.578;11.574;2023-07-22T05:06:47;96501.81;;;14.39
48003;BMP280;33768;48.578;11.574;2023-07-22T05:09:52;96495.38;;;14.51
48003;BMP280;33768;48.578;11.574;2023-07-22T05:12:57;96491.00;;;14.63
48003;BMP280;33768;48.578;11.574;2023-07-22T05:16:01;96494.13;;;14.74
48003;BMP280;33768;48.578;11.574;2023-07-22T05:19:05;96492.09;;;14.90
48003;BMP280;33768;48.578;11.574;2023-07-22T05:22:12;96502.16;;;15.02
48003;BMP280;33768;48.578;11.574;2023-07-22T05:25:16;96499.94;;;15.08
48003;BMP280;33768;48.578;11.574;2023-07-22T05:28:21;96509.28;;;15.20
48003;BMP280;33768;48.578;11.574;2023-07-22T05:31:25;96513.69;;;15.23
48003;BMP280;33768;48.578;11.574;2023-07-22T05:34:29;96509.81;;;15.33
48003;BMP280;33768;48.578;11.574;2023-07-22T05:37:34;96506.44;;;15.49
48003;BMP280;33768;48.578;11.574;2023-07-22T05:40:42;96516.47;;;15.62
48003;BMP280;33768;48.578;11.574;2023-07-22T05:44:15;96520.09;;;15.79
48003;BMP280;33768;48.578;11.574;2023-07-22T05:47:19;96522.81;;;15.86
48003;BMP280;33768;48.578;11.574;2023-07-22T05:50:24;96531.75;;;15.94
48003;BMP280;33768;48.578;11.574;2023-07-22T05:53:56;96536.50;;;16.01
48003;BMP280;33768;48.578;11.574;2023-07-22T05:57:02;96536.66;;;16.10
48003;BMP280;33768;48.578;11.574;2023-07-22T06:00:11;96540.31;;;16.13
48003;BMP280;33768;48.578;11.574;2023-07-22T06:03:21;96536.63;;;16.18
48003;BMP280;33768;48.578;11.574;2023-07-22T06:06:27;96530.34;;;16.25
48003;BMP280;33768;48.578;11.574;2023-07-22T06:09:31;96538.56;;;16.32
48003;BMP280;33768;48.578;11.574;2023-07-22T06:12:35;96535.44;;;16.35
48003;BMP280;33768;48.578;11.574;2023-07-22T06:15:39;96519.91;;;16.47
48003;BMP280;33768;48.578;11.574;2023-07-22T06:18:43;96526.22;;;16.64
48003;BMP280;33768;48.578;11.574;2023-07-22T06:21:48;96530.53;;;16.75
48003;BMP280;33768;48.578;11.574;2023-07-22T06:24:52;96531.88;;;16.90
48003;BMP280;33768;48.578;11.574;2023-07-22T06:27:56;96531.47;;;17.18
48003;BMP280;33768;48.578;11.574;2023-07-22T06:31:01;96524.34;;;17.49
48003;BMP280;33768;48.578;11.574;2023-07-22T06:34:05;96533.31;;;17.56
48003;BMP280;33768;48.578;11.574;2023-07-22T06:37:09;96533.13;;;17.54
48003;BMP280;33768;48.578;11.574;2023-07-22T06:40:13;96533.88;;;17.55
48003;BMP280;33768;48.578;11.574;2023-07-22T06:43:18;96535.16;;;17.54
48003;BMP280;33768;48.578;11.574;2023-07-22T06:46:22;96534.69;;;17.65
48003;BMP280;33768;48.578;11.574;2023-07-22T06:49:26;96542.97;;;17.82
48003;BMP280;33768;48.578;11.574;2023-07-22T06:52:31;96541.66;;;17.83
48003;BMP280;33768;48.578;11.574;2023-07-22T06:55:35;96543.09;;;17.84
48003;BMP280;33768;48.578;11.574;2023-07-22T06:58:39;96543.44;;;17.87
48003;BMP280;33768;48.578;11.574;2023-07-22T07:01:43;96543.25;;;18.02
48003;BMP280;33768;48.578;11.574;2023-07-22T07:04:48;96543.66;;;18.16
48003;BMP280;33768;48.578;11.574;2023-07-22T07:07:53;96547.63;;;18.22
48003;BMP280;33768;48.578;11.574;2023-07-22T07:10:59;96544.81;;;18.39
48003;BMP280;33768;48.578;11.574;2023-07-22T07:14:05;96546.69;;;18.62
48003;BMP280;33768;48.578;11.574;2023-07-22T07:17:09;96546.75;;;18.81
48003;BMP280;33768;48.578;11.574;2023-07-22T07:20:14;96555.00;;;18.98
48003;BMP280;33768;48.578;11.574;2023-07-22T07:23:18;96549.81;;;19.20
48003;BMP280;33768;48.578;11.574;2023-07-22T07:26:22;96551.91;;;19.48
48003;BMP280;33768;48.578;11.574;2023-07-22T07:29:26;96544.66;;;19.99
48003;BMP280;33768;48.578;11.574;2023-07-22T07:32:30;96549.53;;;20.57
48003;BMP280;33768;48.578;11.574;2023-07-22T07:35:34;96547.00;;;21.09
48003;BMP280;33768;48.578;11.574;2023-07-22T07:38:39;96537.06;;;21.78
48003;BMP280;33768;48.578;11.574;2023-07-22T07:41:43;96541.09;;;22.50
48003;BMP280;33768;48.578;11.574;2023-07-22T07:44:47;96535.72;;;22.97
48003;BMP280;33768;48.578;11.574;2023-07-22T07:47:51;96534.88;;;23.52
48003;BMP280;33768;48.578;11.574;2023-07-22T07:50:56;96529.78;;;23.95
48003;BMP280;33768;48.578;11.574;2023-07-22T07:54:00;96527.50;;;24.17
48003;BMP280;33768;48.578;11.574;2023-07-22T07:57:05;96528.72;;;24.50
48003;BMP280;33768;48.578;11.574;2023-07-22T08:00:09;96523.66;;;25.24
48003;BMP280;33768;48.578;11.574;2023-07-22T08:03:13;96533.56;;;25.80
48003;BMP280;33768;48.578;11.574;2023-07-22T08:06:17;96516.56;;;26.31
48003;BMP280;33768;48.578;11.574;2023-07-22T08:09:22;96515.06;;;26.43
48003;BMP280;33768;48.578;11.574;2023-07-22T08:12:26;96519.94;;;26.58
48003;BMP280;33768;48.578;11.574;2023-07-22T08:15:30;96518.13;;;26.93
48003;BMP280;33768;48.578;11.574;2023-07-22T08:18:35;96515.13;;;27.20
48003;BMP280;33768;48.578;11.574;2023-07-22T08:21:39;96513.31;;;28.06
48003;BMP280;33768;48.578;11.574;2023-07-22T08:24:44;96509.13;;;28.76
48003;BMP280;33768;48.578;11.574;2023-07-22T08:27:49;96509.25;;;28.80
48003;BMP280;33768;48.578;11.574;2023-07-22T08:30:56;96505.19;;;29.39
48003;BMP280;33768;48.578;11.574;2023-07-22T08:34:00;96514.38;;;29.80
48003;BMP280;33768;48.578;11.574;2023-07-22T08:37:04;96499.06;;;30.06
48003;BMP280;33768;48.578;11.574;2023-07-22T08:40:09;96506.16;;;30.28
48003;BMP280;33768;48.578;11.574;2023-07-22T08:43:14;96494.28;;;30.53
48003;BMP280;33768;48.578;11.574;2023-07-22T08:46:20;96497.13;;;30.31
48003;BMP280;33768;48.578;11.574;2023-07-22T08:49:26;96490.91;;;30.35
48003;BMP280;33768;48.578;11.574;2023-07-22T08:52:33;96493.28;;;30.21
48003;BMP280;33768;48.578;11.574;2023-07-22T08:55:38;96490.97;;;29.94
48003;BMP280;33768;48.578;11.574;2023-07-22T08:58:44;96491.25;;;30.45
48003;BMP280;33768;48.578;11.574;2023-07-22T09:01:50;96480.47;;;30.84
48003;BMP280;33768;48.578;11.574;2023-07-22T09:04:55;96471.91;;;31.03
48003;BMP280;33768;48.578;11.574;2023-07-22T09:08:02;96474.22;;;31.10
48003;BMP280;33768;48.578;11.574;2023-07-22T09:11:06;96480.19;;;31.45
48003;BMP280;33768;48.578;11.574;2023-07-22T09:14:11;96490.06;;;31.98
48003;BMP280;33768;48.578;11.574;2023-07-22T09:17:16;96485.00;;;32.22
48003;BMP280;33768;48.578;11.574;2023-07-22T09:20:21;96472.56;;;32.31
48003;BMP280;33768;48.578;11.574;2023-07-22T09:23:34;96477.53;;;32.63
48003;BMP280;33768;48.578;11.574;2023-07-22T09:26:42;96468.50;;;32.69
48003;BMP280;33768;48.578;11.574;2023-07-22T09:29:53;96473.59;;;33.07
48003;BMP280;33768;48.578;11.574;2023-07-22T09:33:02;96467.38;;;33.47
48003;BMP280;33768;48.578;11.574;2023-07-22T09:41:41;96463.31;;;33.58
48003;BMP280;33768;48.578;11.574;2023-07-22T09:45:12;96441.63;;;34.11
48003;BMP280;33768;48.578;11.574;2023-07-22T09:48:46;96458.84;;;34.23
48003;BMP280;33768;48.578;11.574;2023-07-22T09:52:15;96462.75;;;34.04
48003;BMP280;33768;48.578;11.574;2023-07-22T09:55:25;96458.25;;;34.31
48003;BMP280;33768;48.578;11.574;2023-07-22T09:58:30;96454.97;;;34.46
48003;BMP280;33768;48.578;11.574;2023-07-22T10:01:38;96451.72;;;34.20
48003;BMP280;33768;48.578;11.574;2023-07-22T10:04:46;96452.38;;;34.19
48003;BMP280;33768;48.578;11.574;2023-07-22T10:07:58;96457.81;;;34.95
48003;BMP280;33768;48.578;11.574;2023-07-22T10:11:05;96445.94;;;35.10
48003;BMP280;33768;48.578;11.574;2023-07-22T10:14:11;96445.19;;;35.05
48003;BMP280;33768;48.578;11.574;2023-07-22T10:17:17;96446.72;;;35.14
48003;BMP280;33768;48.578;11.574;2023-07-22T10:20:23;96435.03;;;34.87
48003;BMP280;33768;48.578;11.574;2023-07-22T10:23:29;96437.56;;;35.18
48003;BMP280;33768;48.578;11.574;2023-07-22T10:26:34;96432.88;;;34.85
48003;BMP280;33768;48.578;11.574;2023-07-22T10:29:38;96431.00;;;35.03
48003;BMP280;33768;48.578;11.574;2023-07-22T10:32:50;96431.72;;;35.06
48003;BMP280;33768;48.578;11.574;2023-07-22T10:36:06;96419.88;;;34.68
48003;BMP280;33768;48.578;11.574;2023-07-22T10:39:24;96419.16;;;34.68
48003;BMP280;33768;48.578;11.574;2023-07-22T10:42:31;96418.25;;;35.06
48003;BMP280;33768;48.578;11.574;2023-07-22T10:46:05;96409.25;;;35.22
48003;BMP280;33768;48.578;11.574;2023-07-22T10:49:12;96414.50;;;35.49
48003;BMP280;33768;48.578;11.574;2023-07-22T10:52:43;96400.81;;;35.30
48003;BMP280;33768;48.578;11.574;2023-07-22T10:59:26;96406.97;;;34.60
48003;BMP280;33768;48.578;11.574;2023-07-22T11:02:30;96402.72;;;32.97
48003;BMP280;33768;48.578;11.574;2023-07-22T11:06:00;96394.56;;;33.50
48003;BMP280;33768;48.578;11.574;2023-07-22T11:09:05;96410.88;;;32.50
48003;BMP280;33768;48.578;11.574;2023-07-22T11:12:15;96399.03;;;32.89
48003;BMP280;33768;48.578;11.574;2023-07-22T11:15:20;96390.81;;;33.76
48003;BMP280;33768;48.578;11.574;2023-07-22T11:18:36;96395.25;;;34.32
48003;BMP280;33768;48.578;11.574;2023-07-22T11:21:44;96399.09;;;33.67
48003;BMP280;33768;48.578;11.574;2023-07-22T11:24:48;96389.44;;;33.77
48003;BMP280;33768;48.578;11.574;2023-07-22T11:27:53;96383.94;;;33.89
48003;BMP280;33768;48.578;11.574;2023-07-22T11:30:57;96381.72;;;34.27
48003;BMP280;33768;48.578;11.574;2023-07-22T11:34:05;96379.25;;;34.52
48003;BMP280;33768;48.578;11.574;2023-07-22T11:37:09;96379.66;;;34.80
48003;BMP280;33768;48.578;11.574;2023-07-22T11:40:13;96361.47;;;34.99
48003;BMP280;33768;48.578;11.574;2023-07-22T11:43:17;96368.59;;;35.03
48003;BMP280;33768;48.578;11.574;2023-07-22T11:46:21;96355.00;;;34.92
48003;BMP280;33768;48.578;11.574;2023-07-22T11:49:33;96357.75;;;34.34
48003;BMP280;33768;48.578;11.574;2023-07-22T11:52:37;96365.00;;;33.59
48003;BMP280;33768;48.578;11.574;2023-07-22T11:55:41;96353.63;;;32.81
48003;BMP280;33768;48.578;11.574;2023-07-22T11:58:56;96356.16;;;32.67
48003;BMP280;33768;48.578;11.574;2023-07-22T12:02:00;96342.09;;;33.04
48003;BMP280;33768;48.578;11.574;2023-07-22T12:05:06;96340.88;;;33.52
48003;BMP280;33768;48.578;11.574;2023-07-22T12:08:14;96330.97;;;34.42
48003;BMP280;33768;48.578;11.574;2023-07-22T12:11:23;96326.63;;;34.90
48003;BMP280;33768;48.578;11.574;2023-07-22T12:14:36;96321.56;;;34.81
48003;BMP280;33768;48.578;11.574;2023-07-22T12:20:52;96335.25;;;32.16
48003;BMP280;33768;48.578;11.574;2023-07-22T12:23:56;96330.38;;;32.18
48003;BMP280;33768;48.578;11.574;2023-07-22T12:27:00;96344.72;;;31.41
48003;BMP280;33768;48.578;11.574;2023-07-22T12:30:06;96325.97;;;32.43
48003;BMP280;33768;48.578;11.574;2023-07-22T12:33:11;96318.16;;;33.09
48003;BMP280;33768;48.578;11.574;2023-07-22T12:36:15;96316.16;;;33.54
48003;BMP280;33768;48.578;11.574;2023-07-22T12:39:19;96317.28;;;34.27
48003;BMP280;33768;48.578;11.574;2023-07-22T12:42:24;96303.38;;;33.96
48003;BMP280;33768;48.578;11.574;2023-07-22T12:45:28;96311.44;;;34.13
48003;BMP280;33768;48.578;11.574;2023-07-22T12:48:33;96302.53;;;34.35
48003;BMP280;33768;48.578;11.574;2023-07-22T12:51:38;96300.31;;;34.27
48003;BMP280;33768;48.578;11.574;2023-07-22T12:54:42;96304.69;;;33.87
48003;BMP280;33768;48.578;11.574;2023-07-22T12:57:46;96299.28;;;34.07
48003;BMP280;33768;48.578;11.574;2023-07-22T13:00:50;96304.78;;;33.11
48003;BMP280;33768;48.578;11.574;2023-07-22T13:03:54;96297.19;;;32.85
48003;BMP280;33768;48.578;11.574;2023-07-22T13:06:59;96284.94;;;33.48
48003;BMP280;33768;48.578;11.574;2023-07-22T13:10:04;96283.44;;;33.86
48003;BMP280;33768;48.578;11.574;2023-07-22T13:13:10;96290.78;;;34.07
48003;BMP280;33768;48.578;11.574;2023-07-22T13:16:14;96286.13;;;34.25
48003;BMP280;33768;48.578;11.574;2023-07-22T13:19:18;96276.28;;;34.32
48003;BMP280;33768;48.578;11.574;2023-07-22T13:22:23;96265.75;;;34.37
48003;BMP280;33768;48.578;11.574;2023-07-22T13:25:27;96268.22;;;34.66
48003;BMP280;33768;48.578;11.574;2023-07-22T13:28:31;96276.72;;;34.67
48003;BMP280;33768;48.578;11.574;2023-07-22T13:31:35;96290.50;;;33.42
48003;BMP280;33768;48.578;11.574;2023-07-22T13:34:39;96299.41;;;31.91
48003;BMP280;33768;48.578;11.574;2023-07-22T13:37:44;96293.97;;;31.41
48003;BMP280;33768;48.578;11.574;2023-07-22T13:40:48;96298.97;;;31.45
48003;BMP280;33768;48.578;11.574;2023-07-22T13:43:52;96287.41;;;31.91
48003;BMP280;33768;48.578;11.574;2023-07-22T13:46:56;96287.69;;;32.34
48003;BMP280;33768;48.578;11.574;2023-07-22T13:50:00;96289.28;;;32.78
48003;BMP280;33768;48.578;11.574;2023-07-22T13:53:04;96284.16;;;32.70
48003;BMP280;33768;48.578;11.574;2023-07-22T13:56:08;96288.69;;;31.57
48003;BMP280;33768;48.578;11.574;2023-07-22T13:59:13;96285.84;;;31.01
48003;BMP280;33768;48.578;11.574;2023-07-22T14:02:17;96278.69;;;30.96
48003;BMP280;33768;48.578;11.574;2023-07-22T14:05:21;96275.97;;;31.00
48003;BMP280;33768;48.578;11.574;2023-07-22T14:08:25;96284.81;;;30.88
48003;BMP280;33768;48.578;11.574;2023-07-22T14:11:29;96288.50;;;29.98
48003;BMP280;33768;48.578;11.574;2023-07-22T14:14:33;96277.03;;;29.67
48003;BMP280;33768;48.578;11.574;2023-07-22T14:17:37;96280.28;;;30.27
48003;BMP280;33768;48.578;11.574;2023-07-22T14:20:44;96263.09;;;30.93
48003;BMP280;33768;48.578;11.574;2023-07-22T14:23:49;96270.34;;;31.56
48003;BMP280;33768;48.578;11.574;2023-07-22T14:26:53;96267.50;;;31.85
48003;BMP280;33768;48.578;11.574;2023-07-22T14:29:57;96267.25;;;32.04
48003;BMP280;33768;48.578;11.574;2023-07-22T14:33:01;96271.38;;;31.99
48003;BMP280;33768;48.578;11.574;2023-07-22T14:36:05;96266.66;;;32.10
48003;BMP280;33768;48.578;11.574;2023-07-22T14:39:09;96283.47;;;31.75
48003;BMP280;33768;48.578;11.574;2023-07-22T14:42:14;96281.56;;;30.98
48003;BMP280;33768;48.578;11.574;2023-07-22T14:45:18;96284.56;;;30.79
48003;BMP280;33768;48.578;11.574;2023-07-22T14:48:22;96271.16;;;31.31
48003;BMP280;33768;48.578;11.574;2023-07-22T14:51:26;96273.97;;;31.31
48003;BMP280;33768;48.578;11.574;2023-07-22T14:54:31;96270.38;;;30.52
48003;BMP280;33768;48.578;11.574;2023-07-22T14:57:35;96269.06;;;30.06
48003;BMP280;33768;48.578;11.574;2023-07-22T15:00:39;96260.69;;;30.08
48003;BMP280;33768;48.578;11.574;2023-07-22T15:03:43;96262.44;;;30.19
48003;BMP280;33768;48.578;11.574;2023-07-22T15:06:48;96265.50;;;30.27
48003;BMP280;33768;48.578;11.574;2023-07-22T15:09:52;96258.00;;;30.12
48003;BMP280;33768;48.578;11.574;2023-07-22T15:12:57;96267.28;;;30.67
48003;BMP280;33768;48.578;11.574;2023-07-22T15:16:01;96256.06;;;30.94
48003;BMP280;33768;48.578;11.574;2023-07-22T15:19:06;96267.97;;;30.90
48003;BMP280;33768;48.578;11.574;2023-07-22T15:22:11;96252.63;;;30.70
48003;BMP280;33768;48.578;11.574;2023-07-22T15:25:15;96251.59;;;30.33
48003;BMP280;33768;48.578;11.574;2023-07-22T15:28:19;96253.44;;;29.78
48003;BMP280;33768;48.578;11.574;2023-07-22T15:31:22;96243.88;;;29.43
48003;BMP280;33768;48.578;11.574;2023-07-22T15:34:27;96251.31;;;29.77
48003;BMP280;33768;48.578;11.574;2023-07-22T15:37:31;96246.03;;;29.89
48003;BMP280;33768;48.578;11.574;2023-07-22T15:40:36;96253.28;;;29.72
48003;BMP280;33768;48.578;11.574;2023-07-22T15:43:40;96240.28;;;29.40
48003;BMP280;33768;48.578;11.574;2023-07-22T15:46:44;96240.56;;;29.27
48003;BMP280;33768;48.578;11.574;2023-07-22T15:49:48;96245.69;;;28.92
48003;BMP280;33768;48.578;11.574;2023-07-22T15:52:52;96251.31;;;28.52
48003;BMP280;33768;48.578;11.574;2023-07-22T15:55:57;96254.38;;;28.02
48003;BMP280;33768;48.578;11.574;2023-07-22T15:59:01;96250.94;;;27.50
48003;BMP280;33768;48.578;11.574;2023-07-22T16:02:05;96245.50;;;27.19
48003;BMP280;33768;48.578;11.574;2023-07-22T16:05:09;96259.94;;;27.14
48003;BMP280;33768;48.578;11.574;2023-07-22T16:08:14;96246.22;;;27.20
48003;BMP280;33768;48.578;11.574;2023-07-22T16:11:19;96253.63;;;27.31
48003;BMP280;33768;48.578;11.574;2023-07-22T16:14:23;96245.88;;;27.46
48003;BMP280;33768;48.578;11.574;2023-07-22T16:17:27;96238.53;;;27.37
48003;BMP280;33768;48.578;11.574;2023-07-22T16:20:31;96246.28;;;27.22
48003;BMP280;33768;48.578;11.574;2023-07-22T16:23:35;96245.22;;;27.31
48003;BMP280;33768;48.578;11.574;2023-07-22T16:26:39;96249.25;;;27.26
48003;BMP280;33768;48.578;11.574;2023-07-22T16:29:43;96252.66;;;26.90
48003;BMP280;33768;48.578;11.574;2023-07-22T16:32:47;96260.06;;;26.51
48003;BMP280;33768;48.578;11.574;2023-07-22T16:35:51;96254.59;;;26.38
48003;BMP280;33768;48.578;11.574;2023-07-22T16:38:56;96252.72;;;26.27
48003;BMP280;33768;48.578;11.574;2023-07-22T16:42:00;96254.03;;;26.10
48003;BMP280;33768;48.578;11.574;2023-07-22T16:45:04;96249.63;;;25.90
48003;BMP280;33768;48.578;11.574;2023-07-22T16:48:08;96254.97;;;25.84
48003;BMP280;33768;48.578;11.574;2023-07-22T16:51:12;96243.41;;;25.92
48003;BMP280;33768;48.578;11.574;2023-07-22T16:54:16;96252.41;;;26.06
48003;BMP280;33768;48.578;11.574;2023-07-22T16:57:20;96249.72;;;26.08
48003;BMP280;33768;48.578;11.574;2023-07-22T17:00:24;96248.84;;;26.03
48003;BMP280;33768;48.578;11.574;2023-07-22T17:03:29;96246.13;;;25.90
48003;BMP280;33768;48.578;11.574;2023-07-22T17:06:33;96259.63;;;25.65
48003;BMP280;33768;48.578;11.574;2023-07-22T17:09:38;96247.84;;;25.38
48003;BMP280;33768;48.578;11.574;2023-07-22T17:12:42;96254.47;;;25.15
48003;BMP280;33768;48.578;11.574;2023-07-22T17:15:45;96243.47;;;24.91
48003;BMP280;33768;48.578;11.574;2023-07-22T17:18:50;96251.47;;;24.56
48003;BMP280;33768;48.578;11.574;2023-07-22T17:21:54;96243.13;;;24.43
48003;BMP280;33768;48.578;11.574;2023-07-22T17:24:58;96242.50;;;24.31
48003;BMP280;33768;48.578;11.574;2023-07-22T17:28:02;96255.22;;;24.21
48003;BMP280;33768;48.578;11.574;2023-07-22T17:31:06;96254.16;;;24.15
48003;BMP280;33768;48.578;11.574;2023-07-22T17:34:11;96250.66;;;24.14
48003;BMP280;33768;48.578;11.574;2023-07-22T17:37:15;96243.34;;;24.20
48003;BMP280;33768;48.578;11.574;2023-07-22T17:40:19;96248.50;;;24.26
48003;BMP280;33768;48.578;11.574;2023-07-22T17:43:23;96245.00;;;24.25
48003;BMP280;33768;48.578;11.574;2023-07-22T17:46:27;96251.72;;;24.20